createdAt,value
2022-08-24T00:00:14.571Z,3.75
2022-08-24T00:02:41.611Z,3.08
2022-08-24T00:05:14.431Z,3.83
2022-08-24T00:07:41.728Z,2.75
2022-08-24T00:10:10.516Z,3.40
2022-08-24T00:12:37.489Z,3.25
2022-08-24T00:15:05.971Z,3.55
2022-08-24T00:17:35.057Z,4.50
2022-08-24T00:20:02.661Z,4.25
2022-08-24T00:22:30.702Z,3.30
2022-08-24T00:24:57.485Z,4.50
2022-08-24T00:27:24.418Z,4.05
2022-08-24T00:29:51.105Z,3.83
2022-08-24T00:32:17.780Z,3.83
2022-08-24T00:34:45.927Z,3.53
2022-08-24T00:37:28.492Z,3.38
2022-08-24T00:39:56.013Z,3.70
2022-08-24T00:42:23.686Z,3.13
2022-08-24T00:44:50.476Z,3.55
2022-08-24T00:47:23.959Z,3.40
2022-08-24T00:49:59.695Z,3.92
2022-08-24T00:52:35.407Z,3.55
2022-08-24T00:55:12.273Z,3.83
2022-08-24T00:57:43.146Z,4.38
2022-08-24T01:00:22.037Z,3.55
2022-08-24T01:02:55.047Z,3.33
2022-08-24T01:05:21.765Z,3.60
2022-08-24T01:07:50.549Z,3.42
2022-08-24T01:10:21.317Z,3.50
2022-08-24T01:13:00.427Z,3.67
2022-08-24T01:15:30.775Z,3.85
2022-08-24T01:18:17.286Z,3.47
2022-08-24T01:20:48.776Z,3.33
2022-08-24T01:23:36.373Z,3.90
2022-08-24T01:26:05.653Z,3.88
2022-08-24T01:28:34.404Z,3.88
2022-08-24T01:31:04.237Z,3.85
2022-08-24T01:33:32.051Z,3.72
2022-08-24T01:36:09.588Z,3.70
2022-08-24T01:38:36.615Z,3.90
2022-08-24T01:41:04.731Z,3.60
2022-08-24T01:43:32.214Z,3.80
2022-08-24T01:46:06.307Z,4.47
2022-08-24T01:48:33.444Z,4.57
2022-08-24T01:51:00.171Z,4.20
2022-08-24T01:53:27.136Z,4.00
2022-08-24T01:55:54.072Z,4.00
2022-08-24T01:58:20.815Z,4.53
2022-08-24T02:00:47.762Z,4.75
2022-08-24T02:03:14.710Z,4.13
2022-08-24T02:05:44.842Z,4.55
2022-08-24T02:08:15.041Z,4.30
2022-08-24T02:10:41.864Z,4.40
2022-08-24T02:13:15.888Z,4.20
2022-08-24T02:15:42.655Z,4.80
2022-08-24T02:18:15.615Z,4.30
2022-08-24T02:20:43.512Z,4.30
2022-08-24T02:23:10.293Z,4.50
2022-08-24T02:25:37.087Z,4.00
2022-08-24T02:28:04.536Z,4.05
2022-08-24T02:30:32.079Z,4.10
2022-08-24T02:32:59.319Z,4.50
2022-08-24T02:35:29.635Z,4.68
2022-08-24T02:37:57.695Z,4.20
2022-08-24T02:40:26.095Z,4.75
2022-08-24T02:42:53.542Z,4.35
2022-08-24T02:45:21.792Z,4.13
2022-08-24T02:47:48.529Z,3.95
2022-08-24T02:50:17.726Z,4.28
2022-08-24T02:52:45.356Z,4.43
2022-08-24T02:55:15.846Z,4.50
2022-08-24T02:57:47.894Z,4.00
2022-08-24T03:00:21.313Z,4.53
2022-08-24T03:02:52.449Z,4.43
2022-08-24T03:05:20.705Z,4.30
2022-08-24T03:07:47.842Z,3.70
2022-08-24T03:10:15.211Z,3.92
2022-08-24T03:12:42.378Z,3.58
2022-08-24T03:15:11.378Z,3.90
2022-08-24T03:17:39.845Z,4.30
2022-08-24T03:20:10.965Z,4.05
2022-08-24T03:22:38.808Z,4.03
2022-08-24T03:25:06.686Z,4.53
2022-08-24T03:27:33.426Z,3.88
2022-08-24T03:30:01.191Z,4.32
2022-08-24T03:32:33.203Z,4.25
2022-08-24T03:35:01.895Z,3.95
2022-08-24T03:37:29.886Z,4.25
2022-08-24T03:39:56.623Z,4.03
2022-08-24T03:42:23.427Z,4.28
2022-08-24T03:44:50.258Z,4.22
2022-08-24T03:47:18.817Z,4.30
2022-08-24T03:49:45.854Z,3.92
2022-08-24T03:52:12.789Z,4.07
2022-08-24T03:54:40.629Z,3.63
2022-08-24T03:57:07.942Z,3.42
2022-08-24T03:59:34.858Z,2.90
2022-08-24T04:02:08.026Z,3.38
2022-08-24T04:04:36.969Z,3.55
2022-08-24T04:07:04.617Z,3.90
2022-08-24T04:09:32.457Z,3.50
2022-08-24T04:11:59.375Z,4.10
2022-08-24T04:14:27.884Z,4.20
2022-08-24T04:17:20.707Z,4.00
2022-08-24T04:20:00.436Z,4.43
2022-08-24T04:22:34.164Z,3.95
2022-08-24T04:25:01.038Z,4.38
2022-08-24T04:27:30.863Z,4.65
2022-08-24T04:29:57.664Z,3.90
2022-08-24T04:32:27.582Z,4.15
2022-08-24T04:34:56.232Z,4.20
2022-08-24T04:37:28.178Z,4.13
2022-08-24T04:39:56.868Z,4.28
2022-08-24T04:42:33.469Z,4.88
2022-08-24T04:45:00.881Z,4.60
2022-08-24T04:47:27.607Z,4.10
2022-08-24T04:49:54.449Z,5.07
2022-08-24T04:52:21.422Z,4.63
2022-08-24T04:54:48.177Z,4.53
2022-08-24T04:57:21.573Z,4.60
2022-08-24T04:59:49.134Z,4.32
2022-08-24T05:02:16.637Z,4.97
2022-08-24T05:04:46.896Z,5.00
2022-08-24T05:07:13.811Z,4.88
2022-08-24T05:09:43.363Z,4.57
2022-08-24T05:12:11.785Z,4.95
2022-08-24T05:14:44.158Z,4.47
2022-08-24T05:17:10.959Z,4.68
2022-08-24T05:19:37.823Z,4.93
2022-08-24T05:22:05.344Z,5.53
2022-08-24T05:24:32.389Z,5.07
2022-08-24T05:27:00.652Z,5.60
2022-08-24T05:29:28.180Z,5.43
2022-08-24T05:31:57.167Z,5.47
2022-08-24T05:34:24.590Z,5.95
2022-08-24T05:36:52.043Z,6.15
2022-08-24T05:39:31.038Z,5.57
2022-08-24T05:41:59.794Z,5.85
2022-08-24T05:44:31.365Z,5.85
2022-08-24T05:47:01.455Z,5.97
2022-08-24T05:49:28.829Z,6.50
2022-08-24T05:51:55.669Z,6.60
2022-08-24T05:54:23.572Z,6.90
2022-08-24T05:57:04.569Z,6.13
2022-08-24T05:59:37.785Z,6.78
2022-08-24T06:02:10.101Z,6.75
2022-08-24T06:04:38.251Z,6.43
2022-08-24T06:07:10.689Z,6.90
2022-08-24T06:09:41.632Z,6.78
2022-08-24T06:12:10.301Z,6.30
2022-08-24T06:14:37.037Z,5.63
2022-08-24T06:17:08.390Z,5.65
2022-08-24T06:19:36.139Z,5.03
2022-08-24T06:22:03.576Z,5.45
2022-08-24T06:24:49.621Z,4.80
2022-08-24T06:27:21.029Z,6.13
2022-08-24T06:29:52.224Z,5.55
2022-08-24T06:32:38.713Z,5.22
2022-08-24T06:35:07.909Z,4.57
2022-08-24T06:37:38.473Z,4.63
2022-08-24T06:40:07.507Z,4.30
2022-08-24T06:42:35.319Z,4.32
2022-08-24T06:45:03.109Z,4.03
2022-08-24T06:47:30.929Z,4.03
2022-08-24T06:50:00.484Z,4.68
2022-08-24T06:52:30.077Z,4.43
2022-08-24T06:54:57.399Z,4.15
2022-08-24T06:57:24.303Z,4.03
2022-08-24T06:59:53.075Z,3.80
2022-08-24T07:02:19.969Z,4.50
2022-08-24T07:04:47.524Z,4.97
2022-08-24T07:07:32.656Z,4.28
2022-08-24T07:10:01.055Z,4.30
2022-08-24T07:12:27.815Z,4.40
2022-08-24T07:14:55.217Z,4.75
2022-08-24T07:17:22.963Z,4.57
2022-08-24T07:19:50.168Z,4.53
2022-08-24T07:22:36.807Z,4.85
2022-08-24T07:25:04.133Z,4.82
2022-08-24T07:27:31.614Z,4.63
2022-08-24T07:30:23.077Z,5.30
2022-08-24T07:32:45.039Z,4.78
2022-08-24T07:35:11.919Z,4.85
2022-08-24T07:37:41.343Z,4.35
2022-08-24T07:40:10.057Z,4.80
2022-08-24T07:42:37.103Z,4.53
2022-08-24T07:45:04.153Z,4.15
2022-08-24T07:47:42.332Z,4.13
2022-08-24T07:50:22.871Z,4.22
2022-08-24T07:52:49.568Z,3.95
2022-08-24T07:55:16.728Z,4.13
2022-08-24T07:57:45.212Z,4.53
2022-08-24T08:00:15.973Z,4.70
2022-08-24T08:02:47.336Z,4.22
2022-08-24T08:05:19.804Z,4.82
2022-08-24T08:08:02.171Z,5.00
2022-08-24T08:10:31.008Z,31.05
2022-08-24T08:12:58.153Z,33.67
2022-08-24T08:15:26.599Z,12.88
2022-08-24T08:18:00.193Z,13.18
2022-08-24T08:20:27.053Z,8.02
2022-08-24T08:23:12.481Z,5.60
2022-08-24T08:26:16.453Z,4.93
2022-08-24T08:28:54.819Z,5.45
2022-08-24T08:31:21.593Z,13.35
2022-08-24T08:33:49.028Z,20.48
2022-08-24T08:36:17.144Z,8.90
2022-08-24T08:38:49.162Z,6.90
2022-08-24T08:41:17.749Z,4.50
2022-08-24T08:44:08.764Z,37.35
2022-08-24T08:47:00.625Z,12.98
2022-08-24T08:50:04.415Z,12.50
2022-08-24T08:53:03.201Z,11.35
2022-08-24T08:55:47.637Z,5.60
2022-08-24T08:58:18.171Z,4.43
2022-08-24T09:01:33.044Z,4.70
2022-08-24T09:04:21.648Z,4.22
2022-08-24T09:07:21.702Z,5.80
2022-08-24T09:10:12.770Z,4.60
2022-08-24T09:13:02.836Z,4.28
2022-08-24T09:15:39.953Z,30.23
2022-08-24T09:18:13.943Z,10.32
2022-08-24T09:20:49.714Z,7.93
2022-08-24T09:23:38.537Z,5.05
2022-08-24T09:26:29.234Z,4.55
2022-08-24T09:29:11.939Z,4.50
2022-08-24T09:31:43.831Z,4.78
2022-08-24T09:34:24.909Z,4.32
2022-08-24T09:37:04.796Z,4.40
2022-08-24T09:39:36.631Z,4.00
2022-08-24T09:42:30.619Z,4.28
2022-08-24T09:45:16.270Z,4.13
2022-08-24T09:48:21.042Z,4.00
2022-08-24T09:51:12.030Z,5.63
2022-08-24T09:54:00.128Z,4.18
2022-08-24T09:56:47.057Z,8.02
2022-08-24T09:59:23.299Z,5.95
2022-08-24T10:02:22.656Z,4.88
2022-08-24T10:05:14.165Z,24.30
2022-08-24T10:07:55.820Z,6.10
2022-08-24T10:11:10.594Z,4.90
2022-08-24T10:14:06.576Z,4.40
2022-08-24T10:17:07.875Z,4.75
2022-08-24T10:20:05.619Z,4.32
2022-08-24T10:22:58.289Z,3.97
2022-08-24T10:25:34.945Z,5.13
2022-08-24T10:28:27.706Z,19.85
2022-08-24T10:31:12.947Z,4.35
2022-08-24T10:34:07.069Z,33.67
2022-08-24T10:36:42.738Z,14.73
2022-08-24T10:39:43.863Z,8.88
2022-08-24T10:42:48.407Z,5.60
2022-08-24T10:45:32.055Z,3.10
2022-08-24T10:48:33.499Z,3.90
2022-08-24T10:51:36.174Z,4.75
2022-08-24T10:54:04.399Z,4.10
2022-08-24T10:57:11.592Z,2.92
2022-08-24T10:59:59.283Z,3.03
2022-08-24T11:02:37.287Z,2.67
2022-08-24T11:05:08.595Z,3.08
2022-08-24T11:07:37.563Z,2.30
2022-08-24T11:10:08.427Z,2.38
2022-08-24T11:12:41.468Z,2.78
2022-08-24T11:15:22.074Z,2.20
2022-08-24T11:17:56.698Z,2.00
2022-08-24T11:20:36.540Z,2.58
2022-08-24T11:23:07.826Z,2.08
2022-08-24T11:25:41.968Z,3.35
2022-08-24T11:28:20.597Z,2.67
2022-08-24T11:30:47.590Z,3.30
2022-08-24T11:33:49.657Z,2.45
2022-08-24T11:36:25.852Z,2.85
2022-08-24T11:39:23.678Z,2.63
2022-08-24T11:41:57.341Z,2.90
2022-08-24T11:44:49.765Z,2.80
2022-08-24T11:47:40.465Z,3.00
2022-08-24T11:50:31.200Z,2.42
2022-08-24T11:56:28.550Z,2.30
2022-08-24T11:59:26.754Z,2.60
2022-08-24T12:01:59.671Z,2.58
2022-08-24T12:04:40.622Z,2.40
2022-08-24T12:07:23.057Z,2.25
2022-08-24T12:10:22.043Z,2.10
2022-08-24T12:12:58.591Z,2.30
2022-08-24T12:15:57.192Z,2.47
2022-08-24T12:18:39.312Z,1.90
2022-08-24T12:21:12.565Z,2.08
2022-08-24T12:23:43.657Z,2.45
2022-08-24T12:26:17.185Z,2.42
2022-08-24T12:28:54.195Z,2.55
2022-08-24T12:31:45.731Z,5.40
2022-08-24T12:34:29.964Z,12.68
2022-08-24T12:37:16.400Z,13.82
2022-08-24T12:40:08.856Z,13.73
2022-08-24T12:42:49.882Z,15.68
2022-08-24T12:45:20.854Z,8.15
2022-08-24T12:48:14.746Z,10.40
2022-08-24T12:51:26.893Z,9.30
2022-08-24T12:54:18.208Z,20.23
2022-08-24T12:57:07.819Z,16.08
2022-08-24T12:59:45.315Z,11.05
2022-08-24T13:02:15.163Z,4.43
2022-08-24T13:04:51.174Z,3.90
2022-08-24T13:07:23.992Z,2.10
2022-08-24T13:09:56.771Z,2.47
2022-08-24T13:12:41.281Z,3.15
2022-08-24T13:15:23.506Z,2.00
2022-08-24T13:18:20.170Z,3.92
2022-08-24T13:20:49.949Z,2.10
2022-08-24T13:23:20.700Z,3.38
2022-08-24T13:25:47.312Z,2.20
2022-08-24T13:28:20.277Z,2.20
2022-08-24T13:30:53.516Z,2.17
2022-08-24T13:33:43.542Z,2.50
2022-08-24T13:36:29.132Z,1.95
2022-08-24T13:39:17.497Z,2.28
2022-08-24T13:42:14.276Z,2.17
2022-08-24T13:45:01.332Z,3.25
2022-08-24T13:47:52.107Z,1.77
2022-08-24T13:50:43.815Z,2.08
2022-08-24T13:53:35.143Z,2.13
2022-08-24T13:56:31.007Z,2.17
2022-08-24T13:59:31.009Z,2.15
2022-08-24T14:02:21.091Z,1.88
2022-08-24T14:05:29.607Z,2.05
2022-08-24T14:08:27.417Z,2.38
2022-08-24T14:11:14.596Z,2.83
2022-08-24T14:14:03.287Z,22.55
2022-08-24T14:17:24.140Z,10.13
2022-08-24T14:20:22.255Z,19.70
2022-08-24T14:22:51.974Z,10.13
2022-08-24T14:25:23.198Z,20.65
2022-08-24T14:27:58.912Z,23.33
2022-08-24T14:30:25.688Z,8.95
2022-08-24T14:32:59.647Z,6.15
2022-08-24T14:35:34.344Z,3.30
2022-08-24T14:38:53.632Z,4.93
2022-08-24T14:41:52.228Z,3.10
2022-08-24T14:44:48.600Z,2.90
2022-08-24T14:47:33.594Z,2.20
2022-08-24T14:50:38.230Z,2.67
2022-08-24T14:53:18.820Z,2.90
2022-08-24T14:56:06.035Z,2.33
2022-08-24T14:59:01.956Z,2.25
2022-08-24T15:01:39.279Z,2.70
2022-08-24T15:04:37.444Z,3.00
2022-08-24T15:07:23.171Z,31.77
2022-08-24T15:09:51.819Z,34.58
2022-08-24T15:12:58.061Z,67.47
2022-08-24T15:15:49.857Z,96.05
2022-08-24T15:18:37.038Z,22.58
2022-08-24T15:21:16.521Z,12.98
2022-08-24T15:24:28.345Z,20.65
2022-08-24T15:27:27.311Z,11.82
2022-08-24T15:29:58.300Z,14.93
2022-08-24T15:32:43.597Z,4.97
2022-08-24T15:35:27.100Z,5.65
2022-08-24T15:37:54.692Z,6.97
2022-08-24T15:40:31.666Z,4.43
2022-08-24T15:43:03.854Z,2.58
2022-08-24T15:45:32.238Z,2.75
2022-08-24T15:48:01.037Z,2.40
2022-08-24T15:50:34.899Z,2.40
2022-08-24T15:53:07.251Z,2.38
2022-08-24T15:55:46.471Z,2.40
2022-08-24T15:58:34.803Z,2.47
2022-08-24T16:01:38.091Z,3.80
2022-08-24T16:04:46.429Z,2.33
2022-08-24T16:07:25.506Z,2.58
2022-08-24T16:10:08.832Z,2.90
2022-08-24T16:12:36.397Z,2.78
2022-08-24T16:15:17.332Z,2.53
2022-08-24T16:17:51.462Z,2.35
2022-08-24T16:20:24.593Z,1.67
2022-08-24T16:23:00.773Z,1.92
2022-08-24T16:25:31.618Z,2.10
2022-08-24T16:28:07.717Z,1.90
2022-08-24T16:30:43.142Z,1.75
2022-08-24T16:33:30.723Z,1.75
2022-08-24T16:36:03.267Z,2.00
2022-08-24T16:38:32.382Z,2.10
2022-08-24T16:41:02.107Z,1.98
2022-08-24T16:43:29.747Z,1.65
2022-08-24T16:45:57.984Z,1.80
2022-08-24T16:48:24.696Z,1.60
2022-08-24T16:50:51.377Z,1.98
2022-08-24T16:53:18.149Z,1.90
2022-08-24T16:55:45.023Z,1.63
2022-08-24T16:58:11.981Z,2.00
2022-08-24T17:00:38.739Z,1.50
2022-08-24T17:03:05.612Z,1.50
2022-08-24T17:05:33.072Z,1.63
2022-08-24T17:08:01.754Z,1.73
2022-08-24T17:10:28.431Z,1.35
2022-08-24T17:12:55.306Z,1.80
2022-08-24T17:15:23.529Z,1.50
2022-08-24T17:17:58.502Z,1.52
2022-08-24T17:20:25.922Z,1.98
2022-08-24T17:22:52.877Z,1.85
2022-08-24T17:25:19.719Z,2.03
2022-08-24T17:27:47.565Z,2.05
2022-08-24T17:30:18.457Z,2.08
2022-08-24T17:32:45.229Z,2.03
2022-08-24T17:35:12.824Z,2.17
2022-08-24T17:37:39.798Z,2.40
2022-08-24T17:40:10.556Z,1.98
2022-08-24T17:42:50.995Z,1.75
2022-08-24T17:45:19.104Z,1.73
2022-08-24T17:47:46.318Z,2.50
2022-08-24T17:50:14.791Z,2.78
2022-08-24T17:52:42.518Z,1.80
2022-08-24T17:55:11.775Z,2.00
2022-08-24T17:57:39.486Z,2.20
2022-08-24T18:00:09.993Z,2.13
2022-08-24T18:02:40.204Z,2.22
2022-08-24T18:05:08.476Z,2.53
2022-08-24T18:07:52.524Z,2.38
2022-08-24T18:10:23.859Z,1.70
2022-08-24T18:12:50.791Z,2.25
2022-08-24T18:15:18.022Z,2.30
2022-08-24T18:17:48.508Z,3.33
2022-08-24T18:20:25.859Z,2.35
2022-08-24T18:22:53.827Z,2.50
2022-08-24T18:25:23.116Z,2.25
2022-08-24T18:27:53.274Z,2.30
2022-08-24T18:30:30.408Z,2.20
2022-08-24T18:32:59.867Z,2.47
2022-08-24T18:35:26.648Z,2.72
2022-08-24T18:37:53.253Z,2.50
2022-08-24T18:40:21.674Z,2.35
2022-08-24T18:42:50.936Z,2.78
2022-08-24T18:45:18.400Z,2.08
2022-08-24T18:47:45.411Z,2.47
2022-08-24T18:50:21.095Z,2.03
2022-08-24T18:52:48.043Z,2.30
2022-08-24T18:55:15.277Z,2.05
2022-08-24T18:57:42.127Z,10.38
2022-08-24T19:00:10.415Z,24.50
2022-08-24T19:02:38.008Z,10.27
2022-08-24T19:05:11.350Z,14.02
2022-08-24T19:07:41.565Z,25.50
2022-08-24T19:10:10.092Z,12.57
2022-08-24T19:12:42.557Z,22.40
2022-08-24T19:15:29.408Z,25.38
2022-08-24T19:18:03.134Z,18.85
2022-08-24T19:20:32.596Z,21.67
2022-08-24T19:23:07.134Z,18.13
2022-08-24T19:25:35.300Z,11.77
2022-08-24T19:28:02.557Z,7.50
2022-08-24T19:30:29.306Z,6.13
2022-08-24T19:32:57.623Z,20.70
2022-08-24T19:35:24.279Z,6.03
2022-08-24T19:37:51.013Z,8.23
2022-08-24T19:40:20.736Z,8.00
2022-08-24T19:42:50.765Z,5.57
2022-08-24T19:45:40.690Z,3.70
2022-08-24T19:48:07.453Z,3.83
2022-08-24T19:50:35.965Z,3.83
2022-08-24T19:53:04.783Z,2.92
2022-08-24T19:55:32.750Z,1.95
2022-08-24T19:58:20.491Z,2.83
2022-08-24T20:00:57.653Z,2.33
2022-08-24T20:03:24.986Z,31.70
2022-08-24T20:05:51.820Z,15.88
2022-08-24T20:08:21.734Z,20.33
2022-08-24T20:10:49.659Z,13.13
2022-08-24T20:13:16.954Z,6.35
2022-08-24T20:15:43.678Z,5.30
2022-08-24T20:18:10.716Z,14.88
2022-08-24T20:20:37.735Z,7.82
2022-08-24T20:23:06.418Z,30.55
2022-08-24T20:25:36.188Z,30.95
2022-08-24T20:28:28.291Z,21.40
2022-08-24T20:30:52.235Z,12.40
2022-08-24T20:33:21.128Z,8.07
2022-08-24T20:35:47.915Z,6.35
2022-08-24T20:38:18.160Z,4.07
2022-08-24T20:40:45.955Z,3.53
2022-08-24T20:43:12.961Z,2.80
2022-08-24T20:45:41.623Z,2.35
2022-08-24T20:48:12.049Z,2.83
2022-08-24T20:50:43.098Z,2.78
2022-08-24T20:53:11.334Z,2.35
2022-08-24T20:55:39.715Z,2.33
2022-08-24T20:58:06.759Z,2.28
2022-08-24T21:00:34.301Z,2.30
2022-08-24T21:03:01.082Z,1.92
2022-08-24T21:05:28.093Z,2.10
2022-08-24T21:07:57.649Z,2.50
2022-08-24T21:10:26.465Z,2.50
2022-08-24T21:12:54.296Z,2.30
2022-08-24T21:15:22.378Z,15.52
2022-08-24T21:17:50.260Z,28.10
2022-08-24T21:20:18.276Z,32.13
2022-08-24T21:22:46.064Z,35.72
2022-08-24T21:25:14.577Z,38.17
2022-08-24T21:27:44.104Z,31.17
2022-08-24T21:30:14.630Z,14.55
2022-08-24T21:33:00.053Z,11.82
2022-08-24T21:35:27.322Z,9.40
2022-08-24T21:37:54.135Z,5.72
2022-08-24T21:40:21.806Z,5.10
2022-08-24T21:42:48.866Z,4.78
2022-08-24T21:45:16.110Z,4.07
2022-08-24T21:47:42.947Z,3.72
2022-08-24T21:50:09.944Z,3.05
2022-08-24T21:52:37.196Z,3.20
2022-08-24T21:55:05.553Z,2.90
2022-08-24T21:57:32.237Z,2.22
2022-08-24T21:59:59.143Z,2.38
2022-08-24T22:02:26.085Z,2.75
2022-08-24T22:04:56.884Z,2.70
2022-08-24T22:07:24.471Z,2.55
2022-08-24T22:09:51.296Z,2.28
2022-08-24T22:12:18.459Z,2.92
2022-08-24T22:14:45.181Z,2.80
2022-08-24T22:17:11.908Z,2.78
2022-08-24T22:19:39.167Z,2.92
2022-08-24T22:22:06.159Z,2.53
2022-08-24T22:24:32.813Z,2.30
2022-08-24T22:26:59.712Z,2.55
2022-08-24T22:29:26.379Z,2.42
2022-08-24T22:31:53.065Z,7.30
2022-08-24T22:34:21.031Z,20.10
2022-08-24T22:36:49.231Z,15.63
2022-08-24T22:39:16.515Z,13.55
2022-08-24T22:41:44.287Z,5.45
2022-08-24T22:44:20.173Z,9.68
2022-08-24T22:46:51.106Z,18.63
2022-08-24T22:49:20.517Z,21.75
2022-08-24T22:51:48.030Z,37.65
2022-08-24T22:54:16.054Z,45.60
2022-08-24T22:56:45.821Z,39.33
2022-08-24T22:59:18.920Z,54.25
2022-08-24T23:01:48.712Z,40.50
2022-08-24T23:04:19.517Z,23.58
2022-08-24T23:06:46.586Z,14.38
2022-08-24T23:09:13.562Z,11.50
2022-08-24T23:11:40.321Z,8.07
2022-08-24T23:14:09.027Z,8.52
2022-08-24T23:16:38.964Z,5.68
2022-08-24T23:19:26.681Z,4.35
2022-08-24T23:21:53.886Z,3.90
2022-08-24T23:24:21.731Z,4.10
2022-08-24T23:26:48.747Z,3.90
2022-08-24T23:29:16.595Z,3.88
2022-08-24T23:31:44.270Z,3.58
2022-08-24T23:34:11.201Z,3.60
2022-08-24T23:36:39.176Z,3.35
2022-08-24T23:39:08.269Z,3.35
2022-08-24T23:41:38.820Z,3.03
2022-08-24T23:52:43.332Z,2.97
2022-08-24T23:55:19.996Z,3.17
2022-08-24T23:57:47.443Z,2.72
